createdAt,value
2017-09-24T00:01:24.361Z,38.47
2017-09-24T00:03:51.920Z,36.03
2017-09-24T00:06:19.508Z,37.73
2017-09-24T00:08:47.181Z,35.05
2017-09-24T00:11:14.717Z,32.70
2017-09-24T00:13:42.287Z,33.88
2017-09-24T00:16:09.826Z,35.58
2017-09-24T00:18:38.145Z,29.58
2017-09-24T00:21:05.700Z,36.40
2017-09-24T00:23:33.264Z,45.25
2017-09-24T00:26:00.829Z,29.52
2017-09-24T00:28:28.389Z,34.50
2017-09-24T00:30:55.951Z,29.73
2017-09-24T00:33:23.512Z,33.63
2017-09-24T00:35:51.068Z,41.40
2017-09-24T00:38:18.650Z,35.10
2017-09-24T00:40:46.213Z,41.97
2017-09-24T00:43:13.791Z,38.10
2017-09-24T00:45:41.351Z,32.58
2017-09-24T00:48:08.907Z,34.17
2017-09-24T00:50:36.484Z,33.65
2017-09-24T00:53:04.026Z,40.85
2017-09-24T00:55:31.593Z,37.35
2017-09-24T00:57:59.147Z,36.95
2017-09-24T01:00:26.736Z,40.35
2017-09-24T01:02:54.269Z,33.25
2017-09-24T01:05:21.824Z,41.72
2017-09-24T01:07:49.396Z,32.20
2017-09-24T01:10:17.719Z,41.05
2017-09-24T01:12:46.058Z,43.58
2017-09-24T01:15:13.627Z,39.75
2017-09-24T01:17:41.201Z,35.33
2017-09-24T01:20:08.748Z,37.20
2017-09-24T01:22:36.305Z,35.25
2017-09-24T01:25:03.880Z,34.45
2017-09-24T01:27:31.436Z,32.35
2017-09-24T01:29:59.003Z,48.70
2017-09-24T01:32:26.546Z,41.50
2017-09-24T01:34:54.109Z,44.63
2017-09-24T01:37:21.656Z,37.55
2017-09-24T01:39:49.236Z,27.75
2017-09-24T01:42:16.797Z,29.23
2017-09-24T01:44:44.356Z,28.30
2017-09-24T01:47:11.929Z,38.28
2017-09-24T01:49:39.463Z,28.95
2017-09-24T01:52:07.049Z,35.65
2017-09-24T01:54:34.611Z,33.15
2017-09-24T01:57:02.170Z,36.10
2017-09-24T01:59:29.697Z,34.05
2017-09-24T02:01:57.278Z,33.38
2017-09-24T02:04:24.831Z,36.53
2017-09-24T02:06:52.414Z,27.80
2017-09-24T02:09:19.949Z,28.62
2017-09-24T02:11:47.481Z,38.80
2017-09-24T02:14:15.827Z,32.50
2017-09-24T02:16:43.376Z,40.70
2017-09-24T02:19:10.944Z,31.10
2017-09-24T02:21:38.491Z,45.50
2017-09-24T02:24:06.054Z,35.60
2017-09-24T02:26:33.589Z,32.70
2017-09-24T02:29:01.163Z,31.00
2017-09-24T02:31:28.693Z,36.50
2017-09-24T02:33:57.015Z,33.50
2017-09-24T02:36:24.557Z,34.83
2017-09-24T02:38:52.137Z,33.92
2017-09-24T02:41:19.673Z,35.47
2017-09-24T02:43:47.244Z,29.70
2017-09-24T02:46:14.774Z,38.33
2017-09-24T02:48:43.088Z,40.12
2017-09-24T02:51:10.663Z,31.20
2017-09-24T02:53:38.229Z,29.83
2017-09-24T02:56:05.792Z,30.75
2017-09-24T02:58:33.333Z,41.40
2017-09-24T03:01:00.911Z,31.55
2017-09-24T03:03:28.465Z,43.03
2017-09-24T03:05:56.032Z,40.95
2017-09-24T03:08:23.594Z,27.90
2017-09-24T03:10:51.129Z,34.45
2017-09-24T03:13:18.699Z,34.60
2017-09-24T03:15:46.247Z,36.20
2017-09-24T03:18:13.808Z,33.05
2017-09-24T03:20:41.372Z,36.97
2017-09-24T03:23:08.927Z,41.00
2017-09-24T03:25:37.249Z,32.28
2017-09-24T03:28:04.781Z,40.33
2017-09-24T03:30:32.353Z,43.20
2017-09-24T03:32:59.912Z,35.63
2017-09-24T03:35:27.488Z,36.25
2017-09-24T03:37:55.029Z,32.97
2017-09-24T03:40:22.575Z,32.17
2017-09-24T03:42:50.912Z,32.03
2017-09-24T03:45:18.450Z,37.83
2017-09-24T03:47:46.041Z,33.42
2017-09-24T03:50:13.594Z,31.95
2017-09-24T03:52:41.148Z,31.00
2017-09-24T03:55:08.701Z,36.08
2017-09-24T03:57:36.266Z,35.50
2017-09-24T04:00:03.834Z,27.42
2017-09-24T04:02:31.379Z,31.12
2017-09-24T04:04:58.949Z,27.13
2017-09-24T04:07:26.500Z,27.80
2017-09-24T04:09:54.071Z,37.05
2017-09-24T04:12:21.603Z,34.00
2017-09-24T04:14:49.167Z,37.42
2017-09-24T04:17:16.758Z,39.20
2017-09-24T04:19:44.303Z,31.70
2017-09-24T04:22:11.874Z,34.83
2017-09-24T04:24:39.424Z,31.60
2017-09-24T04:27:06.980Z,26.67
2017-09-24T04:29:34.535Z,30.17
2017-09-24T04:32:02.119Z,30.60
2017-09-24T04:34:29.667Z,31.08
2017-09-24T04:36:58.101Z,39.60
2017-09-24T04:39:25.652Z,30.90
2017-09-24T04:41:53.225Z,37.28
2017-09-24T04:44:20.777Z,35.50
2017-09-24T04:46:48.328Z,29.95
2017-09-24T04:49:15.857Z,30.88
2017-09-24T04:51:43.414Z,35.33
2017-09-24T04:54:10.949Z,34.22
2017-09-24T04:56:38.532Z,40.63
2017-09-24T04:59:06.076Z,70.12
2017-09-24T05:01:34.415Z,35.30
2017-09-24T05:04:01.948Z,30.85
2017-09-24T05:06:29.526Z,28.42
2017-09-24T05:08:57.064Z,28.65
2017-09-24T05:11:24.604Z,27.40
2017-09-24T05:13:52.939Z,25.77
2017-09-24T05:16:20.481Z,32.17
2017-09-24T05:18:48.066Z,28.58
2017-09-24T05:21:15.623Z,41.92
2017-09-24T05:23:43.165Z,36.88
2017-09-24T05:26:10.717Z,34.95
2017-09-24T05:28:38.271Z,30.52
2017-09-24T05:31:05.866Z,33.25
2017-09-24T05:33:33.405Z,38.72
2017-09-24T05:36:00.937Z,36.95
2017-09-24T05:38:29.276Z,33.90
2017-09-24T05:40:56.832Z,32.78
2017-09-24T05:43:24.399Z,29.42
2017-09-24T05:45:51.950Z,40.63
2017-09-24T05:48:19.509Z,38.10
2017-09-24T05:50:47.046Z,29.55
2017-09-24T05:53:14.627Z,37.47
2017-09-24T05:55:42.168Z,35.92
2017-09-24T05:58:09.708Z,34.30
2017-09-24T06:00:38.037Z,39.78
2017-09-24T06:03:05.578Z,38.38
2017-09-24T06:05:33.151Z,49.17
2017-09-24T06:08:00.699Z,47.75
2017-09-24T06:10:28.282Z,39.22
2017-09-24T06:12:55.835Z,44.38
2017-09-24T06:15:23.387Z,55.33
2017-09-24T06:17:50.965Z,60.33
2017-09-24T06:20:18.504Z,44.97
2017-09-24T06:22:46.101Z,43.28
2017-09-24T06:25:13.660Z,38.70
2017-09-24T06:27:41.978Z,41.45
2017-09-24T06:30:10.320Z,35.97
2017-09-24T06:32:37.872Z,53.75
2017-09-24T06:35:05.438Z,45.15
2017-09-24T06:37:32.973Z,53.75
2017-09-24T06:40:00.531Z,66.35
2017-09-24T06:42:28.108Z,48.70
2017-09-24T06:44:55.640Z,56.57
2017-09-24T06:47:23.970Z,56.13
2017-09-24T06:49:51.510Z,50.70
2017-09-24T06:52:19.083Z,59.60
2017-09-24T06:54:46.636Z,58.33
2017-09-24T06:57:14.197Z,53.20
2017-09-24T06:59:41.741Z,63.33
2017-09-24T07:02:10.047Z,46.87
2017-09-24T07:04:37.626Z,43.87
2017-09-24T07:07:05.162Z,57.30
2017-09-24T07:09:32.745Z,50.67
2017-09-24T07:12:00.315Z,51.50
2017-09-24T07:14:27.849Z,46.70
2017-09-24T07:16:55.406Z,59.70
2017-09-24T07:19:22.966Z,59.70
2017-09-24T07:21:50.545Z,59.30
2017-09-24T07:24:18.087Z,63.83
2017-09-24T07:26:45.620Z,92.20
2017-09-24T07:29:13.953Z,68.07
2017-09-24T07:31:41.512Z,62.03
2017-09-24T07:34:09.073Z,61.47
2017-09-24T07:36:36.628Z,68.67
2017-09-24T07:39:04.162Z,53.17
2017-09-24T07:41:32.496Z,59.03
2017-09-24T07:44:00.096Z,80.27
2017-09-24T07:46:28.438Z,58.80
2017-09-24T07:48:55.999Z,52.70
2017-09-24T07:51:23.565Z,58.30
2017-09-24T07:53:51.122Z,58.47
2017-09-24T07:56:18.658Z,65.73
2017-09-24T07:58:46.231Z,63.10
2017-09-24T08:01:13.769Z,64.00
2017-09-24T08:03:41.332Z,75.93
2017-09-24T08:06:08.873Z,60.17
2017-09-24T08:08:37.195Z,65.10
2017-09-24T08:11:04.760Z,68.13
2017-09-24T08:13:32.292Z,71.30
2017-09-24T08:15:59.860Z,50.93
2017-09-24T08:18:27.408Z,101.03
2017-09-24T08:20:55.012Z,62.70
2017-09-24T08:23:22.558Z,69.83
2017-09-24T08:25:50.090Z,68.73
2017-09-24T08:28:17.662Z,72.33
2017-09-24T08:30:45.204Z,73.90
2017-09-24T08:33:13.578Z,71.30
2017-09-24T08:35:41.885Z,69.73
2017-09-24T08:38:09.463Z,63.20
2017-09-24T08:40:37.049Z,62.40
2017-09-24T08:43:05.396Z,66.73
2017-09-24T08:45:32.959Z,72.50
2017-09-24T08:48:00.502Z,70.87
2017-09-24T08:50:28.084Z,69.80
2017-09-24T08:52:55.625Z,71.17
2017-09-24T08:55:23.980Z,60.53
2017-09-24T08:57:52.289Z,70.90
2017-09-24T09:00:19.825Z,61.57
2017-09-24T09:02:47.381Z,68.00
2017-09-24T09:05:14.929Z,64.40
2017-09-24T09:07:42.504Z,74.03
2017-09-24T09:10:10.043Z,64.53
2017-09-24T09:12:37.615Z,65.40
2017-09-24T09:15:05.173Z,86.47
2017-09-24T09:17:32.760Z,65.17
2017-09-24T09:20:01.080Z,75.50
2017-09-24T09:22:28.627Z,65.53
2017-09-24T09:24:56.185Z,70.80
2017-09-24T09:27:23.735Z,60.80
2017-09-24T09:29:52.051Z,68.87
2017-09-24T09:32:19.599Z,66.43
2017-09-24T09:34:59.124Z,67.30
2017-09-24T09:37:27.425Z,78.37
2017-09-24T09:39:55.102Z,75.27
2017-09-24T09:42:22.656Z,67.03
2017-09-24T09:44:52.173Z,78.67
2017-09-24T09:47:26.476Z,67.73
2017-09-24T09:49:54.037Z,61.90
2017-09-24T09:52:21.597Z,82.73
2017-09-24T09:54:49.128Z,79.87
2017-09-24T09:57:17.450Z,81.87
2017-09-24T09:59:45.010Z,71.40
2017-09-24T10:02:12.561Z,72.70
2017-09-24T10:04:40.130Z,87.13
2017-09-24T10:07:19.556Z,82.73
2017-09-24T10:09:58.832Z,118.07
2017-09-24T10:12:26.378Z,100.30
2017-09-24T10:14:53.917Z,78.47
2017-09-24T10:17:21.501Z,84.93
2017-09-24T10:19:49.041Z,79.23
2017-09-24T10:22:16.600Z,80.30
2017-09-24T10:24:44.150Z,99.03
2017-09-24T10:27:12.473Z,85.00
2017-09-24T10:29:40.006Z,75.83
2017-09-24T10:32:07.589Z,82.40
2017-09-24T10:34:35.124Z,76.87
2017-09-24T10:37:02.683Z,77.90
2017-09-24T10:39:30.986Z,71.87
2017-09-24T10:41:58.557Z,67.30
2017-09-24T10:44:26.115Z,69.23
2017-09-24T10:46:53.649Z,67.37
2017-09-24T10:49:21.217Z,54.97
2017-09-24T10:51:48.757Z,68.90
2017-09-24T10:54:17.076Z,54.90
2017-09-24T10:56:44.639Z,52.13
2017-09-24T10:59:12.187Z,48.37
2017-09-24T11:01:39.756Z,50.80
2017-09-24T11:04:07.308Z,60.37
2017-09-24T11:06:34.856Z,55.17
2017-09-24T11:09:03.186Z,56.73
2017-09-24T11:11:30.721Z,48.63
2017-09-24T11:13:58.249Z,51.60
2017-09-24T11:16:26.589Z,41.57
2017-09-24T11:18:54.136Z,54.13
2017-09-24T11:21:22.157Z,60.87
2017-09-24T11:23:50.470Z,32.93
2017-09-24T11:26:18.016Z,42.27
2017-09-24T11:28:45.579Z,55.20
2017-09-24T11:31:13.121Z,40.13
2017-09-24T11:33:41.457Z,41.03
2017-09-24T11:36:09.017Z,34.23
2017-09-24T11:38:36.549Z,32.70
2017-09-24T11:41:04.112Z,36.00
2017-09-24T11:43:31.659Z,33.23
2017-09-24T11:45:59.970Z,36.23
2017-09-24T11:48:29.175Z,33.17
2017-09-24T11:50:56.733Z,34.90
2017-09-24T11:53:24.270Z,28.13
2017-09-24T11:55:51.852Z,43.73
2017-09-24T11:58:19.404Z,42.77
2017-09-24T12:00:46.946Z,32.43
2017-09-24T12:03:15.273Z,35.37
2017-09-24T12:05:42.795Z,33.93
2017-09-24T12:08:10.353Z,36.00
2017-09-24T12:10:37.919Z,35.40
2017-09-24T12:13:05.477Z,40.47
2017-09-24T12:15:33.801Z,31.93
2017-09-24T12:18:01.349Z,37.63
2017-09-24T12:20:28.881Z,34.17
2017-09-24T12:22:56.584Z,43.43
2017-09-24T12:25:24.127Z,32.17
2017-09-24T12:27:51.675Z,39.53
2017-09-24T12:30:19.229Z,32.83
2017-09-24T12:32:47.539Z,36.53
2017-09-24T12:35:15.077Z,36.10
2017-09-24T12:37:42.648Z,40.17
2017-09-24T12:40:10.201Z,37.73
2017-09-24T12:42:37.733Z,34.83
2017-09-24T12:45:06.048Z,32.57
2017-09-24T12:47:33.601Z,37.30
2017-09-24T12:50:01.135Z,35.23
2017-09-24T12:52:29.452Z,38.67
2017-09-24T12:54:57.019Z,34.20
2017-09-24T12:57:24.571Z,42.63
2017-09-24T12:59:52.122Z,44.40
2017-09-24T13:02:20.446Z,39.60
2017-09-24T13:04:47.981Z,33.40
2017-09-24T13:07:15.553Z,33.77
2017-09-24T13:09:43.089Z,32.60
2017-09-24T13:12:10.635Z,35.73
2017-09-24T13:14:38.950Z,27.90
2017-09-24T13:17:06.503Z,27.90
2017-09-24T13:19:34.061Z,27.97
2017-09-24T13:22:01.594Z,39.63
2017-09-24T13:24:29.930Z,31.70
2017-09-24T13:26:58.353Z,46.67
2017-09-24T13:29:26.648Z,33.47
2017-09-24T13:31:54.983Z,31.63
2017-09-24T13:34:22.541Z,34.67
2017-09-24T13:36:50.117Z,34.50
2017-09-24T13:39:17.693Z,30.77
2017-09-24T13:41:45.240Z,35.03
2017-09-24T13:44:12.802Z,28.87
2017-09-24T13:46:40.329Z,28.20
2017-09-24T13:49:07.858Z,24.73
2017-09-24T13:51:36.178Z,24.07
2017-09-24T13:54:03.715Z,25.10
2017-09-24T13:56:31.279Z,25.63
2017-09-24T13:58:58.818Z,24.40
2017-09-24T14:01:27.116Z,28.47
2017-09-24T14:03:54.689Z,25.97
2017-09-24T14:06:22.223Z,27.03
2017-09-24T14:08:50.615Z,28.80
2017-09-24T14:11:18.162Z,20.70
2017-09-24T14:13:46.482Z,31.23
2017-09-24T14:16:14.039Z,22.90
2017-09-24T14:18:41.620Z,27.97
2017-09-24T14:21:09.155Z,22.20
2017-09-24T14:23:36.712Z,22.60
2017-09-24T14:26:04.273Z,27.30
2017-09-24T14:28:31.836Z,24.27
2017-09-24T14:30:59.403Z,20.43
2017-09-24T14:33:26.946Z,15.90
2017-09-24T14:35:54.493Z,40.77
2017-09-24T14:38:22.818Z,28.23
2017-09-24T14:40:50.392Z,30.67
2017-09-24T14:43:17.955Z,23.50
2017-09-24T14:45:46.268Z,22.87
2017-09-24T14:48:14.602Z,26.57
2017-09-24T14:50:42.142Z,27.83
2017-09-24T14:53:09.686Z,23.80
2017-09-24T14:55:38.045Z,22.17
2017-09-24T14:58:05.596Z,33.57
2017-09-24T15:00:33.143Z,22.67
2017-09-24T15:03:00.715Z,24.87
2017-09-24T15:05:28.251Z,29.90
2017-09-24T15:07:55.812Z,20.20
2017-09-24T15:10:23.384Z,19.70
2017-09-24T15:12:50.930Z,20.20
2017-09-24T15:15:18.473Z,17.57
2017-09-24T15:17:46.060Z,25.60
2017-09-24T15:20:13.592Z,18.33
2017-09-24T15:22:41.126Z,30.53
2017-09-24T15:25:08.728Z,26.33
2017-09-24T15:27:36.261Z,18.70
2017-09-24T15:30:04.577Z,18.77
2017-09-24T15:32:32.153Z,21.70
2017-09-24T15:34:59.690Z,15.37
2017-09-24T15:37:27.285Z,12.03
2017-09-24T15:39:54.843Z,16.13
2017-09-24T15:42:22.388Z,15.53
2017-09-24T15:44:49.982Z,29.50
2017-09-24T15:47:17.539Z,21.77
2017-09-24T15:49:45.083Z,19.70
2017-09-24T15:52:12.634Z,13.53
2017-09-24T15:54:40.181Z,11.70
2017-09-24T15:57:07.758Z,15.23
2017-09-24T15:59:35.307Z,15.80
2017-09-24T16:02:02.836Z,9.30
2017-09-24T16:04:31.173Z,13.77
2017-09-24T16:06:58.753Z,11.20
2017-09-24T16:09:26.396Z,13.23
2017-09-24T16:11:54.228Z,13.50
2017-09-24T16:14:22.547Z,14.70
2017-09-24T16:16:50.215Z,13.07
2017-09-24T16:19:17.765Z,10.33
2017-09-24T16:21:45.340Z,9.40
2017-09-24T16:24:12.884Z,7.37
2017-09-24T16:26:40.447Z,7.03
2017-09-24T16:29:08.017Z,8.37
2017-09-24T16:31:35.577Z,8.47
2017-09-24T16:34:03.159Z,8.27
2017-09-24T16:36:30.714Z,6.83
2017-09-24T16:38:58.251Z,7.50
2017-09-24T16:41:25.800Z,5.80
2017-09-24T16:43:53.353Z,5.10
2017-09-24T16:46:20.940Z,5.93
2017-09-24T16:48:48.483Z,5.83
2017-09-24T16:51:16.017Z,5.90
2017-09-24T16:53:44.353Z,6.20
2017-09-24T16:56:11.880Z,5.30
2017-09-24T16:58:39.446Z,6.03
2017-09-24T17:01:06.981Z,8.60
2017-09-24T17:03:35.281Z,7.63
2017-09-24T17:06:02.833Z,6.90
2017-09-24T17:08:31.130Z,8.73
2017-09-24T17:10:58.711Z,9.33
2017-09-24T17:13:26.255Z,5.23
2017-09-24T17:15:53.805Z,6.00
2017-09-24T17:18:21.395Z,8.20
2017-09-24T17:20:48.946Z,5.20
2017-09-24T17:23:16.500Z,9.63
2017-09-24T17:25:44.065Z,6.10
2017-09-24T17:28:11.643Z,3.70
2017-09-24T17:30:39.196Z,9.53
2017-09-24T17:33:06.729Z,5.73
2017-09-24T17:35:35.063Z,8.03
2017-09-24T17:38:02.625Z,10.83
2017-09-24T17:40:30.203Z,8.10
2017-09-24T17:42:57.742Z,13.20
2017-09-24T17:45:25.273Z,7.97
2017-09-24T17:47:52.848Z,9.83
2017-09-24T17:50:20.417Z,8.50
2017-09-24T17:52:48.017Z,10.00
2017-09-24T17:55:15.572Z,13.87
2017-09-24T17:57:43.121Z,7.10
2017-09-24T18:00:10.692Z,8.27
2017-09-24T18:02:38.245Z,6.50
2017-09-24T18:05:05.813Z,5.80
2017-09-24T18:07:33.366Z,4.83
2017-09-24T18:10:00.899Z,9.93
2017-09-24T18:12:28.449Z,6.00
2017-09-24T18:14:55.981Z,10.50
2017-09-24T18:17:24.333Z,8.43
2017-09-24T18:19:51.868Z,7.37
2017-09-24T18:22:19.455Z,9.93
2017-09-24T18:24:47.028Z,10.43
2017-09-24T18:27:14.620Z,6.80
2017-09-24T18:29:42.930Z,10.50
2017-09-24T18:32:10.500Z,21.43
2017-09-24T18:34:38.110Z,9.97
2017-09-24T18:37:05.658Z,15.90
2017-09-24T18:39:33.235Z,13.03
2017-09-24T18:42:00.788Z,8.63
2017-09-24T18:44:28.380Z,11.40
2017-09-24T18:46:56.697Z,10.37
2017-09-24T18:49:24.245Z,7.67
2017-09-24T18:51:51.792Z,10.87
2017-09-24T18:54:19.343Z,10.53
2017-09-24T18:56:46.927Z,11.83
2017-09-24T18:59:14.465Z,10.60
2017-09-24T19:01:42.796Z,17.43
2017-09-24T19:04:10.334Z,7.60
2017-09-24T19:06:37.880Z,10.60
2017-09-24T19:09:05.449Z,9.53
2017-09-24T19:11:32.988Z,11.57
2017-09-24T19:14:01.315Z,9.70
2017-09-24T19:16:28.857Z,13.70
2017-09-24T19:18:56.452Z,10.47
2017-09-24T19:21:24.016Z,12.23
2017-09-24T19:23:51.574Z,12.82
2017-09-24T19:26:19.138Z,9.97
2017-09-24T19:28:46.699Z,13.80
2017-09-24T19:31:14.450Z,10.97
2017-09-24T19:33:41.992Z,8.93
2017-09-24T19:36:09.548Z,10.47
2017-09-24T19:38:37.104Z,9.80
2017-09-24T19:41:04.669Z,18.70
2017-09-24T19:43:32.259Z,12.23
2017-09-24T19:45:59.830Z,10.80
2017-09-24T19:48:27.388Z,10.63
2017-09-24T19:50:54.948Z,12.90
2017-09-24T19:53:22.484Z,14.97
2017-09-24T19:55:50.307Z,12.70
2017-09-24T19:58:17.828Z,10.37
2017-09-24T20:00:45.389Z,12.40
2017-09-24T20:03:12.924Z,11.80
2017-09-24T20:05:41.238Z,15.50
2017-09-24T20:08:08.806Z,12.53
2017-09-24T20:10:36.364Z,26.30
2017-09-24T20:13:03.942Z,10.33
2017-09-24T20:15:31.487Z,11.73
2017-09-24T20:17:59.032Z,12.83
2017-09-24T20:20:26.594Z,12.67
2017-09-24T20:22:54.146Z,12.73
2017-09-24T20:25:21.729Z,16.80
2017-09-24T20:27:49.281Z,18.23
2017-09-24T20:30:16.835Z,11.63
2017-09-24T20:32:44.389Z,13.63
2017-09-24T20:35:11.925Z,10.97
2017-09-24T20:37:40.257Z,17.10
2017-09-24T20:40:07.803Z,11.83
2017-09-24T20:42:35.366Z,24.40
2017-09-24T20:45:02.912Z,23.30
2017-09-24T20:47:30.445Z,14.93
2017-09-24T20:49:58.024Z,21.87
2017-09-24T20:52:26.326Z,18.43
2017-09-24T20:54:53.905Z,14.03
2017-09-24T20:57:21.437Z,16.10
2017-09-24T20:59:49.002Z,14.13
2017-09-24T21:02:16.536Z,22.40
2017-09-24T21:04:44.864Z,28.13
2017-09-24T21:07:12.444Z,20.53
2017-09-24T21:09:39.994Z,26.30
2017-09-24T21:12:07.556Z,20.20
2017-09-24T21:14:35.143Z,22.77
2017-09-24T21:17:02.679Z,21.27
2017-09-24T21:19:30.233Z,17.57
2017-09-24T21:21:57.792Z,25.83
2017-09-24T21:24:25.376Z,20.50
2017-09-24T21:26:53.711Z,17.97
2017-09-24T21:29:21.275Z,18.30
2017-09-24T21:31:48.852Z,19.30
2017-09-24T21:34:16.392Z,15.80
2017-09-24T21:36:44.726Z,19.23
2017-09-24T21:39:12.266Z,15.03
2017-09-24T21:41:39.825Z,18.10
2017-09-24T21:44:07.410Z,18.87
2017-09-24T21:46:34.974Z,24.00
2017-09-24T21:49:02.541Z,17.80
2017-09-24T21:51:30.074Z,15.07
2017-09-24T21:53:57.617Z,14.80
2017-09-24T21:56:25.181Z,13.50
2017-09-24T21:58:52.721Z,19.63
2017-09-24T22:01:21.064Z,14.30
2017-09-24T22:03:48.613Z,19.53
2017-09-24T22:06:16.161Z,17.10
2017-09-24T22:08:43.724Z,18.90
2017-09-24T22:11:11.262Z,17.73
2017-09-24T22:13:38.841Z,19.50
2017-09-24T22:16:06.380Z,22.83
2017-09-24T22:18:33.935Z,18.70
2017-09-24T22:21:02.271Z,15.93
2017-09-24T22:23:30.581Z,17.80
2017-09-24T22:25:58.912Z,22.87
2017-09-24T22:28:26.476Z,14.30
2017-09-24T22:30:54.055Z,16.97
2017-09-24T22:33:21.599Z,16.57
2017-09-24T22:35:49.144Z,20.57
2017-09-24T22:38:16.694Z,21.73
2017-09-24T22:40:44.240Z,14.27
2017-09-24T22:43:12.555Z,14.73
2017-09-24T22:45:40.107Z,21.70
2017-09-24T22:48:07.676Z,17.90
2017-09-24T22:50:35.231Z,18.47
2017-09-24T22:53:02.790Z,21.40
2017-09-24T22:55:30.330Z,28.23
2017-09-24T22:57:58.713Z,19.90
2017-09-24T23:00:27.039Z,22.13
2017-09-24T23:02:54.615Z,21.70
2017-09-24T23:05:22.142Z,14.57
2017-09-24T23:07:49.700Z,20.73
2017-09-24T23:10:17.270Z,19.03
2017-09-24T23:12:44.800Z,19.13
2017-09-24T23:15:13.125Z,15.17
2017-09-24T23:17:40.675Z,18.13
2017-09-24T23:20:08.249Z,17.47
2017-09-24T23:22:37.777Z,13.07
2017-09-24T23:25:05.374Z,16.27
2017-09-24T23:27:33.674Z,17.80
2017-09-24T23:30:01.233Z,16.10
2017-09-24T23:32:28.774Z,18.50
2017-09-24T23:34:57.123Z,30.03
2017-09-24T23:37:24.683Z,16.73
2017-09-24T23:39:52.228Z,20.27
2017-09-24T23:42:19.782Z,28.20
2017-09-24T23:44:47.333Z,21.67
2017-09-24T23:47:14.911Z,20.87
2017-09-24T23:49:42.463Z,20.30
2017-09-24T23:52:10.026Z,21.80
2017-09-24T23:54:37.561Z,17.13
2017-09-24T23:57:05.107Z,17.20
2017-09-24T23:59:33.432Z,19.00
